sensor_id;sensor_type;location;lat;lon;timestamp;temperature;humidity
43858;DHT22;29507;51.284;5.758;2023-02-20T00:00:16;3.80;99.90
43858;DHT22;29507;51.284;5.758;2023-02-20T00:02:42;3.90;99.90
43858;DHT22;29507;51.284;5.758;2023-02-20T00:05:07;4.00;99.90
43858;DHT22;29507;51.284;5.758;2023-02-20T00:07:33;4.10;99.90
43858;DHT22;29507;51.284;5.758;2023-02-20T00:09:59;4.10;99.90
43858;DHT22;29507;51.284;5.758;2023-02-20T00:12:24;4.20;99.90
43858;DHT22;29507;51.284;5.758;2023-02-20T00:14:50;4.20;99.90
43858;DHT22;29507;51.284;5.758;2023-02-20T00:17:15;4.30;99.90
43858;DHT22;29507;51.284;5.758;2023-02-20T00:19:41;4.30;99.90
43858;DHT22;29507;51.284;5.758;2023-02-20T00:22:06;4.40;99.90
43858;DHT22;29507;51.284;5.758;2023-02-20T00:24:32;4.60;99.90
43858;DHT22;29507;51.284;5.758;2023-02-20T00:26:58;4.60;99.90
43858;DHT22;29507;51.284;5.758;2023-02-20T00:29:24;4.60;99.90
43858;DHT22;29507;51.284;5.758;2023-02-20T00:31:51;4.70;99.90
43858;DHT22;29507;51.284;5.758;2023-02-20T00:34:18;4.70;99.90
43858;DHT22;29507;51.284;5.758;2023-02-20T00:36:44;4.70;99.90
43858;DHT22;29507;51.284;5.758;2023-02-20T00:39:09;4.70;99.90
43858;DHT22;29507;51.284;5.758;2023-02-20T00:41:35;4.80;99.90
43858;DHT22;29507;51.284;5.758;2023-02-20T00:44:00;4.70;99.90
43858;DHT22;29507;51.284;5.758;2023-02-20T00:46:26;4.80;99.90
43858;DHT22;29507;51.284;5.758;2023-02-20T00:48:51;4.80;99.90
43858;DHT22;29507;51.284;5.758;2023-02-20T00:51:17;4.80;99.90
43858;DHT22;29507;51.284;5.758;2023-02-20T00:53:42;4.70;99.90
43858;DHT22;29507;51.284;5.758;2023-02-20T00:56:08;4.70;99.90
43858;DHT22;29507;51.284;5.758;2023-02-20T00:58:34;4.60;99.90
43858;DHT22;29507;51.284;5.758;2023-02-20T01:00:59;4.70;99.90
43858;DHT22;29507;51.284;5.758;2023-02-20T01:03:25;4.70;99.90
43858;DHT22;29507;51.284;5.758;2023-02-20T01:05:50;4.70;99.90
43858;DHT22;29507;51.284;5.758;2023-02-20T01:08:16;4.70;99.90
43858;DHT22;29507;51.284;5.758;2023-02-20T01:10:41;4.80;99.90
43858;DHT22;29507;51.284;5.758;2023-02-20T01:13:07;4.90;99.90
43858;DHT22;29507;51.284;5.758;2023-02-20T01:15:33;5.00;99.90
43858;DHT22;29507;51.284;5.758;2023-02-20T01:17:58;4.90;99.90
43858;DHT22;29507;51.284;5.758;2023-02-20T01:20:24;4.90;99.90
43858;DHT22;29507;51.284;5.758;2023-02-20T01:22:50;4.90;99.90
43858;DHT22;29507;51.284;5.758;2023-02-20T01:25:15;4.80;99.90
43858;DHT22;29507;51.284;5.758;2023-02-20T01:27:41;4.90;99.90
43858;DHT22;29507;51.284;5.758;2023-02-20T01:30:07;4.80;99.90
43858;DHT22;29507;51.284;5.758;2023-02-20T01:32:33;4.70;99.90
43858;DHT22;29507;51.284;5.758;2023-02-20T01:34:59;4.80;99.90
43858;DHT22;29507;51.284;5.758;2023-02-20T01:37:24;4.80;99.90
43858;DHT22;29507;51.284;5.758;2023-02-20T01:39:50;4.70;99.90
43858;DHT22;29507;51.284;5.758;2023-02-20T01:42:19;4.60;99.90
43858;DHT22;29507;51.284;5.758;2023-02-20T01:44:45;4.60;99.90
43858;DHT22;29507;51.284;5.758;2023-02-20T01:47:21;4.60;99.90
43858;DHT22;29507;51.284;5.758;2023-02-20T01:50:06;4.60;99.90
43858;DHT22;29507;51.284;5.758;2023-02-20T01:52:34;4.70;99.90
43858;DHT22;29507;51.284;5.758;2023-02-20T01:57:40;4.70;99.90
43858;DHT22;29507;51.284;5.758;2023-02-20T02:00:16;4.60;99.90
43858;DHT22;29507;51.284;5.758;2023-02-20T02:03:06;4.50;99.90
43858;DHT22;29507;51.284;5.758;2023-02-20T02:05:34;4.50;99.90
43858;DHT22;29507;51.284;5.758;2023-02-20T02:08:03;4.50;99.90
43858;DHT22;29507;51.284;5.758;2023-02-20T02:10:45;4.40;99.90
43858;DHT22;29507;51.284;5.758;2023-02-20T02:13:12;4.40;99.90
43858;DHT22;29507;51.284;5.758;2023-02-20T02:15:38;4.40;99.90
43858;DHT22;29507;51.284;5.758;2023-02-20T02:18:37;4.30;99.90
43858;DHT22;29507;51.284;5.758;2023-02-20T02:24:21;4.30;99.90
43858;DHT22;29507;51.284;5.758;2023-02-20T02:27:28;4.40;99.90
43858;DHT22;29507;51.284;5.758;2023-02-20T02:30:41;4.40;99.90
43858;DHT22;29507;51.284;5.758;2023-02-20T02:33:23;4.40;99.90
43858;DHT22;29507;51.284;5.758;2023-02-20T02:36:04;4.50;99.90
43858;DHT22;29507;51.284;5.758;2023-02-20T02:44:30;4.50;99.90
43858;DHT22;29507;51.284;5.758;2023-02-20T02:47:11;4.50;99.90
43858;DHT22;29507;51.284;5.758;2023-02-20T02:49:48;4.60;99.90
43858;DHT22;29507;51.284;5.758;2023-02-20T02:52:17;4.60;99.90
43858;DHT22;29507;51.284;5.758;2023-02-20T02:55:03;4.60;99.90
43858;DHT22;29507;51.284;5.758;2023-02-20T02:57:29;4.70;99.90
43858;DHT22;29507;51.284;5.758;2023-02-20T03:00:02;4.60;99.90
43858;DHT22;29507;51.284;5.758;2023-02-20T03:02:35;4.60;99.90
43858;DHT22;29507;51.284;5.758;2023-02-20T03:05:04;4.60;99.90
43858;DHT22;29507;51.284;5.758;2023-02-20T03:07:34;4.50;99.90
43858;DHT22;29507;51.284;5.758;2023-02-20T03:10:11;4.50;99.90
43858;DHT22;29507;51.284;5.758;2023-02-20T03:12:48;4.50;99.90
43858;DHT22;29507;51.284;5.758;2023-02-20T03:15:35;4.50;99.90
43858;DHT22;29507;51.284;5.758;2023-02-20T03:18:30;4.60;99.90
43858;DHT22;29507;51.284;5.758;2023-02-20T03:21:04;4.50;99.90
43858;DHT22;29507;51.284;5.758;2023-02-20T03:23:37;4.50;99.90
43858;DHT22;29507;51.284;5.758;2023-02-20T03:26:10;4.50;99.90
43858;DHT22;29507;51.284;5.758;2023-02-20T03:28:56;4.50;99.90
43858;DHT22;29507;51.284;5.758;2023-02-20T03:31:43;4.60;99.90
43858;DHT22;29507;51.284;5.758;2023-02-20T03:37:14;4.70;99.90
43858;DHT22;29507;51.284;5.758;2023-02-20T03:40:06;4.80;99.90
43858;DHT22;29507;51.284;5.758;2023-02-20T03:42:54;4.90;99.90
43858;DHT22;29507;51.284;5.758;2023-02-20T03:45:40;5.00;99.90
43858;DHT22;29507;51.284;5.758;2023-02-20T03:48:12;5.00;99.90
43858;DHT22;29507;51.284;5.758;2023-02-20T03:50:39;5.00;99.90
43858;DHT22;29507;51.284;5.758;2023-02-20T03:53:24;5.10;99.90
43858;DHT22;29507;51.284;5.758;2023-02-20T03:55:50;5.10;99.90
43858;DHT22;29507;51.284;5.758;2023-02-20T03:58:18;5.10;99.90
43858;DHT22;29507;51.284;5.758;2023-02-20T04:00:49;5.10;99.90
43858;DHT22;29507;51.284;5.758;2023-02-20T04:03:20;5.20;99.90
43858;DHT22;29507;51.284;5.758;2023-02-20T04:05:48;5.20;99.90
43858;DHT22;29507;51.284;5.758;2023-02-20T04:08:20;5.20;99.90
43858;DHT22;29507;51.284;5.758;2023-02-20T04:10:53;5.20;99.90
43858;DHT22;29507;51.284;5.758;2023-02-20T04:13:19;5.20;99.90
43858;DHT22;29507;51.284;5.758;2023-02-20T04:15:46;5.10;99.90
43858;DHT22;29507;51.284;5.758;2023-02-20T04:18:15;5.10;99.90
43858;DHT22;29507;51.284;5.758;2023-02-20T04:20:43;5.10;99.90
43858;DHT22;29507;51.284;5.758;2023-02-20T04:23:16;5.20;99.90
43858;DHT22;29507;51.284;5.758;2023-02-20T04:25:56;5.20;99.90
43858;DHT22;29507;51.284;5.758;2023-02-20T04:28:23;5.20;99.90
43858;DHT22;29507;51.284;5.758;2023-02-20T04:30:50;5.10;99.90
43858;DHT22;29507;51.284;5.758;2023-02-20T04:33:16;5.20;99.90
43858;DHT22;29507;51.284;5.758;2023-02-20T04:35:42;5.10;99.90
43858;DHT22;29507;51.284;5.758;2023-02-20T04:38:08;5.10;99.90
43858;DHT22;29507;51.284;5.758;2023-02-20T04:40:34;5.00;99.90
43858;DHT22;29507;51.284;5.758;2023-02-20T04:43:00;5.00;99.90
43858;DHT22;29507;51.284;5.758;2023-02-20T04:45:25;5.00;99.90
43858;DHT22;29507;51.284;5.758;2023-02-20T04:47:51;5.00;99.90
43858;DHT22;29507;51.284;5.758;2023-02-20T04:50:20;5.00;99.90
43858;DHT22;29507;51.284;5.758;2023-02-20T04:52:47;5.00;99.90
43858;DHT22;29507;51.284;5.758;2023-02-20T04:55:13;4.90;99.90
43858;DHT22;29507;51.284;5.758;2023-02-20T04:57:39;5.00;99.90
43858;DHT22;29507;51.284;5.758;2023-02-20T05:00:06;5.00;99.90
43858;DHT22;29507;51.284;5.758;2023-02-20T05:02:36;5.00;99.90
43858;DHT22;29507;51.284;5.758;2023-02-20T05:05:02;5.00;99.90
43858;DHT22;29507;51.284;5.758;2023-02-20T05:07:28;5.10;99.90
43858;DHT22;29507;51.284;5.758;2023-02-20T05:09:53;5.20;99.90
43858;DHT22;29507;51.284;5.758;2023-02-20T05:12:19;5.20;99.90
43858;DHT22;29507;51.284;5.758;2023-02-20T05:14:44;5.20;99.90
43858;DHT22;29507;51.284;5.758;2023-02-20T05:17:10;5.20;99.90
43858;DHT22;29507;51.284;5.758;2023-02-20T05:19:36;5.30;99.90
43858;DHT22;29507;51.284;5.758;2023-02-20T05:22:01;5.30;99.90
43858;DHT22;29507;51.284;5.758;2023-02-20T05:24:48;5.30;99.90
43858;DHT22;29507;51.284;5.758;2023-02-20T05:27:15;5.30;99.90
43858;DHT22;29507;51.284;5.758;2023-02-20T05:29:46;5.30;99.90
43858;DHT22;29507;51.284;5.758;2023-02-20T05:32:13;5.40;99.90
43858;DHT22;29507;51.284;5.758;2023-02-20T05:34:38;5.40;99.90
43858;DHT22;29507;51.284;5.758;2023-02-20T05:37:04;5.40;99.90
43858;DHT22;29507;51.284;5.758;2023-02-20T05:39:29;5.40;99.90
43858;DHT22;29507;51.284;5.758;2023-02-20T05:41:55;5.40;99.90
43858;DHT22;29507;51.284;5.758;2023-02-20T05:44:21;5.50;99.90
43858;DHT22;29507;51.284;5.758;2023-02-20T05:46:47;5.50;99.90
43858;DHT22;29507;51.284;5.758;2023-02-20T05:49:12;5.50;99.90
43858;DHT22;29507;51.284;5.758;2023-02-20T05:51:38;5.50;99.90
43858;DHT22;29507;51.284;5.758;2023-02-20T05:54:04;5.50;99.90
43858;DHT22;29507;51.284;5.758;2023-02-20T05:56:30;5.50;99.90
43858;DHT22;29507;51.284;5.758;2023-02-20T05:58:57;5.50;99.90
43858;DHT22;29507;51.284;5.758;2023-02-20T06:01:26;5.50;99.90
43858;DHT22;29507;51.284;5.758;2023-02-20T06:03:52;5.50;99.90
43858;DHT22;29507;51.284;5.758;2023-02-20T06:06:18;5.50;99.90
43858;DHT22;29507;51.284;5.758;2023-02-20T06:08:45;5.50;99.90
43858;DHT22;29507;51.284;5.758;2023-02-20T06:11:11;5.60;99.90
43858;DHT22;29507;51.284;5.758;2023-02-20T06:13:41;5.60;99.90
43858;DHT22;29507;51.284;5.758;2023-02-20T06:16:07;5.60;99.90
43858;DHT22;29507;51.284;5.758;2023-02-20T06:18:37;5.70;99.90
43858;DHT22;29507;51.284;5.758;2023-02-20T06:21:08;5.70;99.90
43858;DHT22;29507;51.284;5.758;2023-02-20T06:23:38;5.70;99.90
43858;DHT22;29507;51.284;5.758;2023-02-20T06:26:05;5.70;99.90
43858;DHT22;29507;51.284;5.758;2023-02-20T06:28:31;5.70;99.90
43858;DHT22;29507;51.284;5.758;2023-02-20T06:30:56;5.70;99.90
43858;DHT22;29507;51.284;5.758;2023-02-20T06:33:22;5.70;99.90
43858;DHT22;29507;51.284;5.758;2023-02-20T06:35:48;5.70;99.90
43858;DHT22;29507;51.284;5.758;2023-02-20T06:38:13;5.80;99.90
43858;DHT22;29507;51.284;5.758;2023-02-20T06:40:39;5.80;99.90
43858;DHT22;29507;51.284;5.758;2023-02-20T06:43:05;5.80;99.90
43858;DHT22;29507;51.284;5.758;2023-02-20T06:45:30;5.80;99.90
43858;DHT22;29507;51.284;5.758;2023-02-20T06:47:56;5.90;99.90
43858;DHT22;29507;51.284;5.758;2023-02-20T06:50:21;5.90;99.90
43858;DHT22;29507;51.284;5.758;2023-02-20T06:52:47;5.90;99.90
43858;DHT22;29507;51.284;5.758;2023-02-20T06:55:13;6.00;99.90
43858;DHT22;29507;51.284;5.758;2023-02-20T06:57:38;5.90;99.90
43858;DHT22;29507;51.284;5.758;2023-02-20T07:00:04;6.00;99.90
43858;DHT22;29507;51.284;5.758;2023-02-20T07:02:30;6.00;99.90
43858;DHT22;29507;51.284;5.758;2023-02-20T07:04:56;6.00;99.90
43858;DHT22;29507;51.284;5.758;2023-02-20T07:07:21;6.10;99.90
43858;DHT22;29507;51.284;5.758;2023-02-20T07:09:47;6.10;99.90
43858;DHT22;29507;51.284;5.758;2023-02-20T07:12:13;6.10;99.90
43858;DHT22;29507;51.284;5.758;2023-02-20T07:14:38;6.20;99.90
43858;DHT22;29507;51.284;5.758;2023-02-20T07:17:04;6.30;99.90
43858;DHT22;29507;51.284;5.758;2023-02-20T07:19:29;6.30;99.90
43858;DHT22;29507;51.284;5.758;2023-02-20T07:21:55;6.30;99.90
43858;DHT22;29507;51.284;5.758;2023-02-20T07:24:20;6.30;99.90
43858;DHT22;29507;51.284;5.758;2023-02-20T07:26:46;6.40;99.90
43858;DHT22;29507;51.284;5.758;2023-02-20T07:29:12;6.40;99.90
43858;DHT22;29507;51.284;5.758;2023-02-20T07:31:38;6.40;99.90
43858;DHT22;29507;51.284;5.758;2023-02-20T07:34:04;6.40;99.90
43858;DHT22;29507;51.284;5.758;2023-02-20T07:36:29;6.40;99.90
43858;DHT22;29507;51.284;5.758;2023-02-20T07:39:00;6.50;99.90
43858;DHT22;29507;51.284;5.758;2023-02-20T07:41:28;6.50;99.90
43858;DHT22;29507;51.284;5.758;2023-02-20T07:43:59;6.50;99.90
43858;DHT22;29507;51.284;5.758;2023-02-20T07:46:24;6.60;99.90
43858;DHT22;29507;51.284;5.758;2023-02-20T07:48:50;6.60;99.90
43858;DHT22;29507;51.284;5.758;2023-02-20T07:51:17;6.60;99.90
43858;DHT22;29507;51.284;5.758;2023-02-20T07:53:47;6.70;99.90
43858;DHT22;29507;51.284;5.758;2023-02-20T07:56:13;6.70;99.90
43858;DHT22;29507;51.284;5.758;2023-02-20T07:58:39;6.80;99.90
43858;DHT22;29507;51.284;5.758;2023-02-20T08:01:04;6.80;99.90
43858;DHT22;29507;51.284;5.758;2023-02-20T08:03:30;6.90;99.90
43858;DHT22;29507;51.284;5.758;2023-02-20T08:05:55;6.90;99.90
43858;DHT22;29507;51.284;5.758;2023-02-20T08:08:21;7.00;99.90
43858;DHT22;29507;51.284;5.758;2023-02-20T08:10:49;7.00;99.90
43858;DHT22;29507;51.284;5.758;2023-02-20T08:13:15;7.00;99.90
43858;DHT22;29507;51.284;5.758;2023-02-20T08:15:40;7.10;99.90
43858;DHT22;29507;51.284;5.758;2023-02-20T08:18:06;7.10;99.90
43858;DHT22;29507;51.284;5.758;2023-02-20T08:20:31;7.20;99.90
43858;DHT22;29507;51.284;5.758;2023-02-20T08:22:57;7.20;99.90
43858;DHT22;29507;51.284;5.758;2023-02-20T08:25:25;7.30;99.90
43858;DHT22;29507;51.284;5.758;2023-02-20T08:27:51;7.30;99.90
43858;DHT22;29507;51.284;5.758;2023-02-20T08:30:22;7.30;99.90
43858;DHT22;29507;51.284;5.758;2023-02-20T08:32:50;7.40;99.90
43858;DHT22;29507;51.284;5.758;2023-02-20T08:35:16;7.40;99.90
43858;DHT22;29507;51.284;5.758;2023-02-20T08:37:41;7.40;99.90
43858;DHT22;29507;51.284;5.758;2023-02-20T08:40:08;7.30;99.90
43858;DHT22;29507;51.284;5.758;2023-02-20T08:42:34;7.30;99.90
43858;DHT22;29507;51.284;5.758;2023-02-20T08:45:02;7.40;99.90
43858;DHT22;29507;51.284;5.758;2023-02-20T08:47:28;7.40;99.90
43858;DHT22;29507;51.284;5.758;2023-02-20T08:49:53;7.40;99.90
43858;DHT22;29507;51.284;5.758;2023-02-20T08:52:19;7.40;99.90
43858;DHT22;29507;51.284;5.758;2023-02-20T08:54:46;7.50;99.90
43858;DHT22;29507;51.284;5.758;2023-02-20T08:57:12;7.50;99.90
43858;DHT22;29507;51.284;5.758;2023-02-20T08:59:38;7.60;99.90
43858;DHT22;29507;51.284;5.758;2023-02-20T09:02:04;7.60;99.90
43858;DHT22;29507;51.284;5.758;2023-02-20T09:04:30;7.60;99.90
43858;DHT22;29507;51.284;5.758;2023-02-20T09:06:56;7.60;99.90
43858;DHT22;29507;51.284;5.758;2023-02-20T09:09:22;7.70;99.90
43858;DHT22;29507;51.284;5.758;2023-02-20T09:11:47;7.70;99.90
43858;DHT22;29507;51.284;5.758;2023-02-20T09:14:13;7.80;99.90
43858;DHT22;29507;51.284;5.758;2023-02-20T09:16:38;7.80;99.90
43858;DHT22;29507;51.284;5.758;2023-02-20T09:19:10;7.80;99.90
43858;DHT22;29507;51.284;5.758;2023-02-20T09:21:38;7.80;99.90
43858;DHT22;29507;51.284;5.758;2023-02-20T09:24:05;7.80;99.90
43858;DHT22;29507;51.284;5.758;2023-02-20T09:26:30;7.80;99.90
43858;DHT22;29507;51.284;5.758;2023-02-20T09:28:56;7.80;99.90
43858;DHT22;29507;51.284;5.758;2023-02-20T09:31:21;7.90;99.90
43858;DHT22;29507;51.284;5.758;2023-02-20T09:33:47;7.80;99.90
43858;DHT22;29507;51.284;5.758;2023-02-20T09:36:13;7.80;99.90
43858;DHT22;29507;51.284;5.758;2023-02-20T09:38:38;7.90;99.90
43858;DHT22;29507;51.284;5.758;2023-02-20T09:41:04;7.80;99.90
43858;DHT22;29507;51.284;5.758;2023-02-20T09:43:47;7.90;99.90
43858;DHT22;29507;51.284;5.758;2023-02-20T09:46:20;7.80;99.90
43858;DHT22;29507;51.284;5.758;2023-02-20T09:51:27;7.90;99.90
43858;DHT22;29507;51.284;5.758;2023-02-20T09:54:13;7.90;99.90
43858;DHT22;29507;51.284;5.758;2023-02-20T09:56:51;8.00;99.90
43858;DHT22;29507;51.284;5.758;2023-02-20T10:04:24;7.90;99.90
43858;DHT22;29507;51.284;5.758;2023-02-20T10:06:53;8.00;99.90
43858;DHT22;29507;51.284;5.758;2023-02-20T10:09:22;8.00;99.90
43858;DHT22;29507;51.284;5.758;2023-02-20T10:12:14;8.00;99.90
43858;DHT22;29507;51.284;5.758;2023-02-20T10:14:59;8.00;99.90
43858;DHT22;29507;51.284;5.758;2023-02-20T10:17:45;8.00;99.90
43858;DHT22;29507;51.284;5.758;2023-02-20T10:25:53;8.10;99.90
43858;DHT22;29507;51.284;5.758;2023-02-20T10:28:20;8.00;99.90
43858;DHT22;29507;51.284;5.758;2023-02-20T10:33:55;8.10;99.90
43858;DHT22;29507;51.284;5.758;2023-02-20T10:36:37;8.10;99.90
43858;DHT22;29507;51.284;5.758;2023-02-20T10:39:13;8.20;99.90
43858;DHT22;29507;51.284;5.758;2023-02-20T10:44:31;8.20;99.90
43858;DHT22;29507;51.284;5.758;2023-02-20T10:50:11;8.20;99.90
43858;DHT22;29507;51.284;5.758;2023-02-20T10:52:54;8.20;99.90
43858;DHT22;29507;51.284;5.758;2023-02-20T10:55:28;8.20;99.90
43858;DHT22;29507;51.284;5.758;2023-02-20T10:58:09;8.20;99.90
43858;DHT22;29507;51.284;5.758;2023-02-20T11:00:41;8.20;99.90
43858;DHT22;29507;51.284;5.758;2023-02-20T11:03:36;8.20;99.90
43858;DHT22;29507;51.284;5.758;2023-02-20T11:06:05;8.20;99.90
43858;DHT22;29507;51.284;5.758;2023-02-20T11:08:31;8.20;99.90
43858;DHT22;29507;51.284;5.758;2023-02-20T11:11:36;8.20;99.90
43858;DHT22;29507;51.284;5.758;2023-02-20T11:14:14;8.20;99.90
43858;DHT22;29507;51.284;5.758;2023-02-20T11:16:47;8.20;99.90
43858;DHT22;29507;51.284;5.758;2023-02-20T11:19:20;8.20;99.90
43858;DHT22;29507;51.284;5.758;2023-02-20T11:21:48;8.20;99.90
43858;DHT22;29507;51.284;5.758;2023-02-20T11:24:37;8.30;99.90
43858;DHT22;29507;51.284;5.758;2023-02-20T11:27:13;8.30;99.90
43858;DHT22;29507;51.284;5.758;2023-02-20T11:29:59;8.30;99.90
43858;DHT22;29507;51.284;5.758;2023-02-20T11:32:40;8.40;99.90
43858;DHT22;29507;51.284;5.758;2023-02-20T11:37:51;8.40;99.90
43858;DHT22;29507;51.284;5.758;2023-02-20T11:40:36;8.40;99.90
43858;DHT22;29507;51.284;5.758;2023-02-20T11:43:26;8.40;99.90
43858;DHT22;29507;51.284;5.758;2023-02-20T11:46:08;8.40;99.90
43858;DHT22;29507;51.284;5.758;2023-02-20T11:48:34;8.40;99.90
43858;DHT22;29507;51.284;5.758;2023-02-20T11:51:00;8.50;99.90
43858;DHT22;29507;51.284;5.758;2023-02-20T11:53:32;8.50;99.90
43858;DHT22;29507;51.284;5.758;2023-02-20T11:56:16;8.50;99.90
43858;DHT22;29507;51.284;5.758;2023-02-20T11:58:42;8.40;99.90
43858;DHT22;29507;51.284;5.758;2023-02-20T12:01:33;8.40;99.90
43858;DHT22;29507;51.284;5.758;2023-02-20T12:03:59;8.50;99.90
43858;DHT22;29507;51.284;5.758;2023-02-20T12:06:45;8.50;99.90
43858;DHT22;29507;51.284;5.758;2023-02-20T12:09:15;8.60;99.90
43858;DHT22;29507;51.284;5.758;2023-02-20T12:11:42;8.60;99.90
43858;DHT22;29507;51.284;5.758;2023-02-20T12:14:13;8.60;99.90
43858;DHT22;29507;51.284;5.758;2023-02-20T12:19:52;8.50;99.90
43858;DHT22;29507;51.284;5.758;2023-02-20T12:22:37;8.50;99.90
43858;DHT22;29507;51.284;5.758;2023-02-20T12:25:31;8.50;99.90
43858;DHT22;29507;51.284;5.758;2023-02-20T12:33:58;8.50;99.90
43858;DHT22;29507;51.284;5.758;2023-02-20T12:42:19;8.40;99.90
43858;DHT22;29507;51.284;5.758;2023-02-20T12:45:05;8.50;99.90
43858;DHT22;29507;51.284;5.758;2023-02-20T12:47:37;8.50;99.90
43858;DHT22;29507;51.284;5.758;2023-02-20T12:55:51;8.50;99.90
43858;DHT22;29507;51.284;5.758;2023-02-20T12:58:34;8.60;99.90
43858;DHT22;29507;51.284;5.758;2023-02-20T13:01:09;8.60;99.90
43858;DHT22;29507;51.284;5.758;2023-02-20T13:03:51;8.60;99.90
43858;DHT22;29507;51.284;5.758;2023-02-20T13:06:42;8.60;99.90
43858;DHT22;29507;51.284;5.758;2023-02-20T13:09:23;8.60;99.90
43858;DHT22;29507;51.284;5.758;2023-02-20T13:11:55;8.60;99.90
43858;DHT22;29507;51.284;5.758;2023-02-20T13:14:37;8.60;99.90
43858;DHT22;29507;51.284;5.758;2023-02-20T13:19:58;8.60;99.90
43858;DHT22;29507;51.284;5.758;2023-02-20T13:22:25;8.70;99.90
43858;DHT22;29507;51.284;5.758;2023-02-20T13:24:50;8.70;99.90
43858;DHT22;29507;51.284;5.758;2023-02-20T13:27:30;8.70;99.90
43858;DHT22;29507;51.284;5.758;2023-02-20T13:30:18;8.70;99.90
43858;DHT22;29507;51.284;5.758;2023-02-20T13:32:44;8.80;99.90
43858;DHT22;29507;51.284;5.758;2023-02-20T13:35:32;8.80;99.90
43858;DHT22;29507;51.284;5.758;2023-02-20T13:38:12;8.90;99.90
43858;DHT22;29507;51.284;5.758;2023-02-20T13:40:41;9.00;99.90
43858;DHT22;29507;51.284;5.758;2023-02-20T13:43:27;9.00;99.90
43858;DHT22;29507;51.284;5.758;2023-02-20T13:48:45;9.00;99.90
43858;DHT22;29507;51.284;5.758;2023-02-20T13:53:52;9.10;99.90
43858;DHT22;29507;51.284;5.758;2023-02-20T13:56:28;9.10;99.90
43858;DHT22;29507;51.284;5.758;2023-02-20T13:58:58;9.10;99.90
43858;DHT22;29507;51.284;5.758;2023-02-20T14:01:24;9.20;99.90
43858;DHT22;29507;51.284;5.758;2023-02-20T14:04:01;9.30;99.90
43858;DHT22;29507;51.284;5.758;2023-02-20T14:06:27;9.20;99.90
43858;DHT22;29507;51.284;5.758;2023-02-20T14:09:19;9.10;99.90
43858;DHT22;29507;51.284;5.758;2023-02-20T14:11:45;9.00;99.90
43858;DHT22;29507;51.284;5.758;2023-02-20T14:14:26;9.00;99.90
43858;DHT22;29507;51.284;5.758;2023-02-20T14:17:22;9.00;99.90
43858;DHT22;29507;51.284;5.758;2023-02-20T14:19:53;9.00;99.90
43858;DHT22;29507;51.284;5.758;2023-02-20T14:24:46;9.00;99.90
43858;DHT22;29507;51.284;5.758;2023-02-20T14:27:30;9.00;99.90
43858;DHT22;29507;51.284;5.758;2023-02-20T14:30:23;8.90;99.90
43858;DHT22;29507;51.284;5.758;2023-02-20T14:32:54;8.90;99.90
43858;DHT22;29507;51.284;5.758;2023-02-20T14:40:55;8.80;99.90
43858;DHT22;29507;51.284;5.758;2023-02-20T14:43:23;8.80;99.90
43858;DHT22;29507;51.284;5.758;2023-02-20T14:46:01;8.80;99.90
43858;DHT22;29507;51.284;5.758;2023-02-20T14:48:36;8.80;99.90
43858;DHT22;29507;51.284;5.758;2023-02-20T14:51:15;8.80;99.90
43858;DHT22;29507;51.284;5.758;2023-02-20T14:53:43;8.80;99.90
43858;DHT22;29507;51.284;5.758;2023-02-20T14:56:18;8.80;99.90
43858;DHT22;29507;51.284;5.758;2023-02-20T14:58:44;8.70;99.90
43858;DHT22;29507;51.284;5.758;2023-02-20T15:01:35;8.70;99.90
43858;DHT22;29507;51.284;5.758;2023-02-20T15:04:22;8.70;99.90
43858;DHT22;29507;51.284;5.758;2023-02-20T15:06:49;8.70;99.90
43858;DHT22;29507;51.284;5.758;2023-02-20T15:09:16;8.70;99.90
43858;DHT22;29507;51.284;5.758;2023-02-20T15:11:51;8.70;99.90
43858;DHT22;29507;51.284;5.758;2023-02-20T15:14:23;8.70;99.90
43858;DHT22;29507;51.284;5.758;2023-02-20T15:17:07;8.70;99.90
43858;DHT22;29507;51.284;5.758;2023-02-20T15:19:36;8.70;99.90
43858;DHT22;29507;51.284;5.758;2023-02-20T15:22:03;8.70;99.90
43858;DHT22;29507;51.284;5.758;2023-02-20T15:24:37;8.80;99.90
43858;DHT22;29507;51.284;5.758;2023-02-20T15:27:11;8.70;99.90
43858;DHT22;29507;51.284;5.758;2023-02-20T15:29:37;8.70;99.90
43858;DHT22;29507;51.284;5.758;2023-02-20T15:32:21;8.60;99.90
43858;DHT22;29507;51.284;5.758;2023-02-20T15:34:53;8.70;99.90
43858;DHT22;29507;51.284;5.758;2023-02-20T15:37:22;8.70;99.90
43858;DHT22;29507;51.284;5.758;2023-02-20T15:39:49;8.70;99.90
43858;DHT22;29507;51.284;5.758;2023-02-20T15:42:16;8.70;99.90
43858;DHT22;29507;51.284;5.758;2023-02-20T15:44:42;8.60;99.90
43858;DHT22;29507;51.284;5.758;2023-02-20T15:47:08;8.60;99.90
43858;DHT22;29507;51.284;5.758;2023-02-20T15:49:33;8.70;99.90
43858;DHT22;29507;51.284;5.758;2023-02-20T15:51:59;8.70;99.90
43858;DHT22;29507;51.284;5.758;2023-02-20T15:54:25;8.70;99.90
43858;DHT22;29507;51.284;5.758;2023-02-20T15:56:52;8.70;99.90
43858;DHT22;29507;51.284;5.758;2023-02-20T15:59:17;8.60;99.90
43858;DHT22;29507;51.284;5.758;2023-02-20T16:01:43;8.60;99.90
43858;DHT22;29507;51.284;5.758;2023-02-20T16:04:14;8.60;99.90
43858;DHT22;29507;51.284;5.758;2023-02-20T16:06:40;8.70;99.90
43858;DHT22;29507;51.284;5.758;2023-02-20T16:09:08;8.70;99.90
43858;DHT22;29507;51.284;5.758;2023-02-20T16:11:39;8.60;99.90
43858;DHT22;29507;51.284;5.758;2023-02-20T16:14:05;8.60;99.90
43858;DHT22;29507;51.284;5.758;2023-02-20T16:16:45;8.60;99.90
43858;DHT22;29507;51.284;5.758;2023-02-20T16:19:15;8.60;99.90
43858;DHT22;29507;51.284;5.758;2023-02-20T16:21:41;8.60;99.90
43858;DHT22;29507;51.284;5.758;2023-02-20T16:24:07;8.60;99.90
43858;DHT22;29507;51.284;5.758;2023-02-20T16:26:33;8.60;99.90
43858;DHT22;29507;51.284;5.758;2023-02-20T16:29:03;8.60;99.90
43858;DHT22;29507;51.284;5.758;2023-02-20T16:34:22;8.60;99.90
43858;DHT22;29507;51.284;5.758;2023-02-20T16:36:47;8.60;99.90
43858;DHT22;29507;51.284;5.758;2023-02-20T16:39:13;8.60;99.90
43858;DHT22;29507;51.284;5.758;2023-02-20T16:41:39;8.60;99.90
43858;DHT22;29507;51.284;5.758;2023-02-20T16:46:49;8.70;99.90
43858;DHT22;29507;51.284;5.758;2023-02-20T16:49:14;8.70;99.90
43858;DHT22;29507;51.284;5.758;2023-02-20T16:51:42;8.60;99.90
43858;DHT22;29507;51.284;5.758;2023-02-20T16:54:15;8.60;99.90
43858;DHT22;29507;51.284;5.758;2023-02-20T16:56:41;8.60;99.90
43858;DHT22;29507;51.284;5.758;2023-02-20T16:59:06;8.50;99.90
43858;DHT22;29507;51.284;5.758;2023-02-20T17:01:35;8.60;99.90
43858;DHT22;29507;51.284;5.758;2023-02-20T17:04:00;8.60;99.90
43858;DHT22;29507;51.284;5.758;2023-02-20T17:06:26;8.50;99.90
43858;DHT22;29507;51.284;5.758;2023-02-20T17:08:55;8.50;99.90
43858;DHT22;29507;51.284;5.758;2023-02-20T17:11:21;8.50;99.90
43858;DHT22;29507;51.284;5.758;2023-02-20T17:13:46;8.50;99.90
43858;DHT22;29507;51.284;5.758;2023-02-20T17:16:12;8.50;99.90
43858;DHT22;29507;51.284;5.758;2023-02-20T17:18:38;8.50;99.90
43858;DHT22;29507;51.284;5.758;2023-02-20T17:21:03;8.50;99.90
43858;DHT22;29507;51.284;5.758;2023-02-20T17:23:29;8.50;99.90
43858;DHT22;29507;51.284;5.758;2023-02-20T17:25:54;8.50;99.90
43858;DHT22;29507;51.284;5.758;2023-02-20T17:28:20;8.50;99.90